Time;durP1;ratioP1;P1;durP2;ratioP2;P2;SDS_P1;SDS_P2;PMS_P1;PMS_P2;Temp;Humidity;BMP_temperature;BMP_pressure;BME280_temperature;BME280_humidity;BME280_pressure;Samples;Min_cycle;Max_cycle;Signal;HPM_P1;HPM_P2
2023/01/15 00:01:33;;;;;;;9.97;1.47;;;;;;;;;;6239319;23;20547;-74
2023/01/15 00:03:59;;;;;;;5.57;1.60;;;;;;;;;;6239830;23;20167;-74
2023/01/15 00:06:25;;;;;;;8.20;1.90;;;;;;;;;;6237735;23;20435;-74
2023/01/15 00:08:50;;;;;;;8.60;2.33;;;;;;;;;;6237644;22;20199;-73
2023/01/15 00:11:16;;;;;;;7.50;1.53;;;;;;;;;;6239696;23;20828;-73
2023/01/15 00:13:41;;;;;;;9.77;1.80;;;;;;;;;;6238677;22;20509;-73
2023/01/15 00:16:09;;;;;;;5.53;1.77;;;;;;;;;;6242636;22;20162;-73
2023/01/15 00:18:34;;;;;;;6.93;1.50;;;;;;;;;;6240673;22;20140;-73
2023/01/15 00:21:00;;;;;;;5.30;1.33;;;;;;;;;;6242735;22;20445;-73
2023/01/15 00:29:00;;;;;;;8.90;1.77;;;;;;;;;;6240101;22;20486;-73
2023/01/15 00:31:26;;;;;;;8.60;1.80;;;;;;;;;;6241008;22;20888;-73
2023/01/15 00:33:51;;;;;;;7.60;1.80;;;;;;;;;;6241313;22;20182;-73
2023/01/15 00:36:17;;;;;;;8.63;1.63;;;;;;;;;;6240996;23;20881;-73
2023/01/15 00:38:42;;;;;;;10.13;1.80;;;;;;;;;;6239101;22;20158;-73
2023/01/15 00:41:07;;;;;;;9.50;1.93;;;;;;;;;;6242194;22;20150;-73
2023/01/15 00:43:33;;;;;;;7.70;2.00;;;;;;;;;;6241262;23;20148;-73
2023/01/15 00:45:58;;;;;;;8.90;1.97;;;;;;;;;;6242369;23;20480;-74
2023/01/15 00:48:23;;;;;;;11.70;1.43;;;;;;;;;;6240163;23;20154;-73
2023/01/15 00:50:49;;;;;;;10.17;1.67;;;;;;;;;;6240778;22;20201;-73
2023/01/15 00:53:14;;;;;;;9.70;1.70;;;;;;;;;;6241196;23;20358;-73
2023/01/15 00:55:39;;;;;;;10.17;2.03;;;;;;;;;;6241388;22;20489;-73
2023/01/15 00:58:05;;;;;;;13.33;2.43;;;;;;;;;;6240536;23;20236;-73
2023/01/15 01:00:30;;;;;;;12.37;2.07;;;;;;;;;;6241249;22;20213;-74
2023/01/15 01:02:56;;;;;;;6.20;2.10;;;;;;;;;;6241625;23;20208;-73
2023/01/15 01:05:21;;;;;;;8.47;2.00;;;;;;;;;;6240785;23;20158;-74
2023/01/15 01:07:46;;;;;;;8.40;1.93;;;;;;;;;;6240784;23;20530;-73
2023/01/15 01:10:12;;;;;;;7.53;1.83;;;;;;;;;;6241587;22;20281;-73
2023/01/15 01:12:37;;;;;;;15.67;2.70;;;;;;;;;;6240778;22;20190;-73
2023/01/15 01:15:02;;;;;;;6.97;1.60;;;;;;;;;;6239925;23;20201;-73
2023/01/15 01:17:28;;;;;;;8.53;1.90;;;;;;;;;;6240611;22;20194;-73
2023/01/15 01:19:53;;;;;;;12.17;2.00;;;;;;;;;;6238765;22;20167;-73
2023/01/15 01:22:18;;;;;;;16.77;2.73;;;;;;;;;;6240680;23;20151;-73
2023/01/15 01:24:44;;;;;;;9.33;2.63;;;;;;;;;;6239800;23;20230;-73
2023/01/15 01:27:09;;;;;;;11.20;2.07;;;;;;;;;;6241215;23;20230;-74
2023/01/15 01:29:34;;;;;;;11.10;2.10;;;;;;;;;;6240282;22;20613;-73
2023/01/15 01:31:59;;;;;;;12.20;2.37;;;;;;;;;;6242009;23;20170;-73
2023/01/15 01:34:25;;;;;;;7.80;2.63;;;;;;;;;;6239278;23;20226;-73
2023/01/15 01:36:50;;;;;;;5.50;1.70;;;;;;;;;;6235216;23;20598;-74
2023/01/15 01:39:16;;;;;;;11.27;1.97;;;;;;;;;;6237064;22;20178;-74
2023/01/15 01:41:42;;;;;;;8.47;1.70;;;;;;;;;;6239727;23;20150;-74
2023/01/15 01:44:26;;;;;;;10.87;2.00;;;;;;;;;;6241256;22;20362;-74
2023/01/15 01:46:52;;;;;;;8.77;2.43;;;;;;;;;;6241637;23;20374;-74
2023/01/15 01:49:17;;;;;;;8.20;2.10;;;;;;;;;;6240888;22;20443;-73
2023/01/15 01:51:46;;;;;;;9.87;1.93;;;;;;;;;;6239243;23;20642;-74
2023/01/15 01:54:12;;;;;;;13.30;1.90;;;;;;;;;;6241031;22;20257;-73
2023/01/15 01:56:38;;;;;;;9.53;1.93;;;;;;;;;;6240757;22;20366;-73
2023/01/15 01:59:05;;;;;;;7.13;2.20;;;;;;;;;;6240102;22;20868;-74
2023/01/15 02:01:30;;;;;;;9.87;1.97;;;;;;;;;;6239511;23;20193;-74
2023/01/15 02:03:56;;;;;;;10.63;2.30;;;;;;;;;;6239704;23;20382;-74
2023/01/15 02:06:22;;;;;;;9.67;2.47;;;;;;;;;;6241614;22;20151;-73
2023/01/15 02:08:48;;;;;;;8.00;2.50;;;;;;;;;;6240171;22;20174;-73
2023/01/15 02:11:15;;;;;;;8.90;1.93;;;;;;;;;;6238899;23;20374;-74
2023/01/15 02:13:44;;;;;;;10.60;2.00;;;;;;;;;;6241202;22;20197;-74
2023/01/15 02:16:09;;;;;;;16.20;2.27;;;;;;;;;;6241002;22;20362;-73
2023/01/15 02:18:53;;;;;;;10.20;1.87;;;;;;;;;;6240440;22;20744;-74
2023/01/15 02:21:22;;;;;;;9.73;1.97;;;;;;;;;;6238899;23;20539;-73
2023/01/15 02:24:04;;;;;;;13.57;2.20;;;;;;;;;;6241196;23;20366;-74
2023/01/15 02:26:48;;;;;;;10.30;2.50;;;;;;;;;;6239549;23;20818;-74
2023/01/15 02:29:16;;;;;;;7.93;2.50;;;;;;;;;;6235193;22;20489;-73
2023/01/15 02:31:44;;;;;;;7.40;2.10;;;;;;;;;;6240996;22;20417;-74
2023/01/15 02:34:21;;;;;;;9.50;2.57;;;;;;;;;;6238410;23;20505;-74
2023/01/15 02:36:49;;;;;;;12.20;1.90;;;;;;;;;;6241038;22;20397;-74
2023/01/15 02:39:15;;;;;;;15.87;2.40;;;;;;;;;;6239693;22;20438;-74
2023/01/15 02:41:43;;;;;;;13.73;2.77;;;;;;;;;;6239349;23;20378;-73
2023/01/15 02:44:10;;;;;;;8.07;1.70;;;;;;;;;;6239006;23;20393;-74
2023/01/15 02:46:37;;;;;;;17.53;2.70;;;;;;;;;;6240244;22;20366;-74
2023/01/15 02:49:04;;;;;;;8.70;2.10;;;;;;;;;;6232521;22;20390;-74
2023/01/15 02:51:33;;;;;;;22.37;2.50;;;;;;;;;;6240408;22;20369;-74
2023/01/15 02:54:00;;;;;;;11.80;2.20;;;;;;;;;;6237076;23;20559;-72
2023/01/15 02:56:29;;;;;;;7.30;1.87;;;;;;;;;;6240137;22;20365;-72
2023/01/15 02:58:56;;;;;;;8.83;1.97;;;;;;;;;;6231584;22;20394;-72
2023/01/15 03:01:25;;;;;;;7.57;1.70;;;;;;;;;;6238894;23;20742;-71
2023/01/15 03:03:53;;;;;;;14.60;2.60;;;;;;;;;;6240682;22;20441;-72
2023/01/15 03:06:28;;;;;;;9.10;2.30;;;;;;;;;;6241244;23;20374;-72
2023/01/15 03:08:54;;;;;;;9.30;1.67;;;;;;;;;;6239672;22;20416;-72
2023/01/15 03:11:19;;;;;;;7.60;1.93;;;;;;;;;;6239331;22;20793;-72
2023/01/15 03:13:51;;;;;;;9.20;2.07;;;;;;;;;;6239660;23;20695;-71
2023/01/15 03:16:37;;;;;;;14.50;2.47;;;;;;;;;;6238898;23;20150;-74
2023/01/15 03:19:03;;;;;;;11.00;2.63;;;;;;;;;;6237490;22;20410;-74
2023/01/15 03:21:40;;;;;;;11.73;2.40;;;;;;;;;;6240188;23;20856;-74
2023/01/15 03:24:07;;;;;;;9.40;2.23;;;;;;;;;;6240928;23;20169;-71
2023/01/15 03:26:32;;;;;;;14.23;3.00;;;;;;;;;;6240209;22;20424;-71
2023/01/15 03:28:58;;;;;;;6.77;1.97;;;;;;;;;;6239570;22;20394;-71
2023/01/15 03:31:24;;;;;;;8.73;2.80;;;;;;;;;;6239017;22;20614;-72
2023/01/15 03:33:49;;;;;;;14.90;2.20;;;;;;;;;;6240846;22;20406;-72
2023/01/15 03:36:15;;;;;;;12.60;2.30;;;;;;;;;;6239951;23;20700;-71
2023/01/15 03:38:40;;;;;;;20.43;3.03;;;;;;;;;;6235099;22;20178;-72
2023/01/15 03:41:08;;;;;;;7.60;2.07;;;;;;;;;;6240154;22;20151;-71
2023/01/15 03:43:39;;;;;;;8.87;2.40;;;;;;;;;;6233013;22;20638;-77
2023/01/15 03:46:07;;;;;;;12.00;2.20;;;;;;;;;;6212963;23;20427;-77
2023/01/15 03:48:44;;;;;;;10.43;2.40;;;;;;;;;;6242516;23;20358;-77
2023/01/15 03:51:19;;;;;;;15.00;2.27;;;;;;;;;;6243683;23;20350;-78
2023/01/15 03:53:48;;;;;;;8.93;1.93;;;;;;;;;;6242604;22;20915;-77
2023/01/15 03:56:31;;;;;;;9.73;2.60;;;;;;;;;;6242977;22;20829;-77
2023/01/15 03:59:01;;;;;;;11.37;2.40;;;;;;;;;;6245454;23;20370;-78
2023/01/15 04:01:30;;;;;;;11.87;1.80;;;;;;;;;;6245813;22;20358;-77
2023/01/15 04:03:57;;;;;;;12.17;2.27;;;;;;;;;;6245552;22;20389;-78
2023/01/15 04:06:25;;;;;;;10.07;2.27;;;;;;;;;;6245043;22;20373;-76
2023/01/15 04:08:50;;;;;;;8.07;2.10;;;;;;;;;;6244362;22;20370;-78
2023/01/15 04:11:21;;;;;;;11.93;3.60;;;;;;;;;;6241343;22;20837;-76
2023/01/15 04:13:46;;;;;;;9.93;2.27;;;;;;;;;;6242796;22;20175;-77
2023/01/15 04:16:12;;;;;;;10.63;1.93;;;;;;;;;;6241169;22;20477;-77
2023/01/15 04:18:37;;;;;;;8.63;2.60;;;;;;;;;;6241838;23;20143;-77
2023/01/15 04:21:02;;;;;;;13.77;2.60;;;;;;;;;;6242623;23;20135;-77
2023/01/15 04:23:27;;;;;;;13.57;3.30;;;;;;;;;;6241461;22;20170;-77
2023/01/15 04:25:53;;;;;;;10.73;2.90;;;;;;;;;;6242214;22;20147;-77
2023/01/15 04:28:20;;;;;;;14.83;2.50;;;;;;;;;;6241820;23;20148;-77
2023/01/15 04:30:46;;;;;;;13.77;2.10;;;;;;;;;;6242748;22;20140;-77
2023/01/15 04:33:11;;;;;;;8.77;2.00;;;;;;;;;;6240829;22;20417;-77
2023/01/15 04:35:37;;;;;;;9.83;2.50;;;;;;;;;;6242963;23;20154;-77
2023/01/15 04:38:02;;;;;;;11.23;2.00;;;;;;;;;;6239944;23;20174;-77
2023/01/15 04:45:56;;;;;;;11.57;2.37;;;;;;;;;;6241655;23;20477;-77
2023/01/15 04:48:21;;;;;;;11.90;2.10;;;;;;;;;;6241638;22;21038;-77
2023/01/15 04:50:47;;;;;;;10.17;2.47;;;;;;;;;;6242630;22;20562;-77
2023/01/15 04:53:12;;;;;;;10.90;2.27;;;;;;;;;;6242076;22;20175;-76
2023/01/15 04:55:37;;;;;;;6.20;2.20;;;;;;;;;;6242655;22;20641;-76
2023/01/15 04:58:03;;;;;;;13.93;2.70;;;;;;;;;;6241287;23;20621;-77
2023/01/15 05:00:30;;;;;;;9.13;2.87;;;;;;;;;;6241482;23;20139;-76
2023/01/15 05:02:56;;;;;;;11.43;2.30;;;;;;;;;;6242488;22;20241;-76
2023/01/15 05:05:21;;;;;;;7.60;2.40;;;;;;;;;;6243219;22;20749;-76
2023/01/15 05:07:46;;;;;;;10.80;2.17;;;;;;;;;;6240739;23;20162;-76
2023/01/15 05:10:14;;;;;;;10.60;2.40;;;;;;;;;;6243904;22;20154;-77
2023/01/15 05:12:39;;;;;;;6.93;2.00;;;;;;;;;;6241410;22;20620;-76
2023/01/15 05:15:05;;;;;;;15.10;3.00;;;;;;;;;;6242844;23;20366;-76
2023/01/15 05:17:33;;;;;;;14.17;2.47;;;;;;;;;;6241140;22;20226;-77
2023/01/15 05:19:58;;;;;;;13.00;2.53;;;;;;;;;;6242796;22;20479;-76
2023/01/15 05:22:23;;;;;;;8.10;1.93;;;;;;;;;;6242791;22;20412;-77
2023/01/15 05:24:49;;;;;;;7.20;2.50;;;;;;;;;;6242755;23;20194;-77
2023/01/15 05:27:14;;;;;;;10.97;2.53;;;;;;;;;;6243291;22;20147;-76
2023/01/15 05:29:39;;;;;;;10.83;2.80;;;;;;;;;;6240720;23;20156;-76
2023/01/15 05:32:04;;;;;;;14.10;2.67;;;;;;;;;;6241066;22;20233;-77
2023/01/15 05:34:30;;;;;;;12.07;3.43;;;;;;;;;;6240617;23;20163;-77
2023/01/15 05:36:57;;;;;;;12.47;2.47;;;;;;;;;;6242444;23;20633;-77
2023/01/15 05:39:23;;;;;;;9.30;2.37;;;;;;;;;;6236859;22;20186;-77
2023/01/15 05:41:51;;;;;;;13.10;2.43;;;;;;;;;;6241988;23;20367;-77
2023/01/15 05:44:16;;;;;;;11.37;2.70;;;;;;;;;;6241416;22;20166;-77
2023/01/15 05:46:43;;;;;;;11.20;3.10;;;;;;;;;;6242483;22;20371;-77
2023/01/15 05:49:10;;;;;;;13.73;3.30;;;;;;;;;;6243115;22;20143;-78
2023/01/15 05:51:35;;;;;;;12.37;2.20;;;;;;;;;;6244650;22;20377;-77
2023/01/15 05:54:01;;;;;;;8.50;2.20;;;;;;;;;;6245623;22;20422;-77
2023/01/15 05:56:26;;;;;;;12.63;2.43;;;;;;;;;;6244779;22;20617;-77
2023/01/15 05:58:52;;;;;;;10.17;2.10;;;;;;;;;;6244314;22;20578;-76
2023/01/15 06:01:18;;;;;;;10.60;2.40;;;;;;;;;;6244487;22;20174;-77
2023/01/15 06:03:43;;;;;;;10.27;2.43;;;;;;;;;;6245094;22;20390;-77
2023/01/15 06:06:12;;;;;;;8.93;2.33;;;;;;;;;;6242434;23;20241;-77
2023/01/15 06:08:38;;;;;;;8.90;2.17;;;;;;;;;;6241738;22;20170;-77
2023/01/15 06:11:05;;;;;;;9.37;2.33;;;;;;;;;;6244572;22;20413;-78
2023/01/15 06:13:31;;;;;;;7.90;2.50;;;;;;;;;;6243342;22;20214;-77
2023/01/15 06:15:57;;;;;;;10.00;2.80;;;;;;;;;;6243483;23;20362;-77
2023/01/15 06:18:23;;;;;;;11.27;2.50;;;;;;;;;;6241835;22;20193;-77
2023/01/15 06:20:50;;;;;;;15.00;2.70;;;;;;;;;;6242828;23;20366;-77
2023/01/15 06:23:17;;;;;;;7.33;1.97;;;;;;;;;;6243091;22;20175;-78
2023/01/15 06:25:44;;;;;;;12.30;2.37;;;;;;;;;;6243278;22;21031;-77
2023/01/15 06:28:10;;;;;;;10.43;1.90;;;;;;;;;;6242555;22;20370;-78
2023/01/15 06:30:37;;;;;;;6.63;1.50;;;;;;;;;;6244503;22;20397;-78
2023/01/15 06:33:02;;;;;;;12.73;3.17;;;;;;;;;;6243820;22;20585;-76
2023/01/15 06:35:27;;;;;;;14.83;2.90;;;;;;;;;;6243230;22;20367;-76
2023/01/15 06:37:55;;;;;;;11.10;2.17;;;;;;;;;;6241891;23;20597;-76
2023/01/15 06:40:22;;;;;;;12.00;2.03;;;;;;;;;;6241817;22;20173;-76
2023/01/15 06:48:29;;;;;;;13.13;2.33;;;;;;;;;;6239807;23;20420;-78
2023/01/15 06:50:54;;;;;;;11.17;2.60;;;;;;;;;;6242870;23;20371;-78
2023/01/15 06:53:20;;;;;;;9.40;3.20;;;;;;;;;;6243327;22;20546;-78
2023/01/15 06:55:45;;;;;;;8.57;2.23;;;;;;;;;;6242809;22;20143;-78
2023/01/15 06:58:11;;;;;;;10.70;2.13;;;;;;;;;;6241401;22;20156;-78
2023/01/15 07:00:36;;;;;;;12.37;2.20;;;;;;;;;;6241659;22;20201;-78
2023/01/15 07:03:02;;;;;;;7.77;1.50;;;;;;;;;;6239524;22;20501;-77
2023/01/15 07:05:27;;;;;;;8.77;2.00;;;;;;;;;;6236567;22;20159;-78
2023/01/15 07:07:53;;;;;;;7.70;1.67;;;;;;;;;;6238737;23;20696;-78
2023/01/15 07:10:20;;;;;;;9.00;2.27;;;;;;;;;;6237532;22;20146;-77
2023/01/15 07:12:46;;;;;;;12.20;2.47;;;;;;;;;;6234701;22;20198;-77
2023/01/15 07:15:13;;;;;;;11.50;2.27;;;;;;;;;;6238369;23;20362;-77
2023/01/15 07:17:39;;;;;;;8.40;2.30;;;;;;;;;;6240535;22;20218;-78
2023/01/15 07:20:04;;;;;;;10.77;3.13;;;;;;;;;;6239269;23;20414;-77
2023/01/15 07:22:30;;;;;;;10.93;1.77;;;;;;;;;;6240928;22;20547;-77
2023/01/15 07:24:55;;;;;;;7.93;2.40;;;;;;;;;;6238720;22;20155;-77
2023/01/15 07:27:23;;;;;;;14.83;2.73;;;;;;;;;;6240763;22;20225;-76
2023/01/15 07:29:50;;;;;;;14.13;2.47;;;;;;;;;;6240364;22;20147;-76
2023/01/15 07:32:18;;;;;;;11.00;2.67;;;;;;;;;;6240994;22;20461;-77
2023/01/15 07:34:43;;;;;;;11.73;3.17;;;;;;;;;;6242453;22;20362;-77
2023/01/15 07:37:11;;;;;;;13.27;2.57;;;;;;;;;;6239520;22;20362;-78
2023/01/15 07:39:36;;;;;;;19.30;2.87;;;;;;;;;;6238811;22;20147;-78
2023/01/15 07:50:13;;;;;;;8.83;2.00;;;;;;;;;;6244496;23;20377;-79
2023/01/15 07:52:41;;;;;;;8.00;2.00;;;;;;;;;;6245764;22;20418;-79
2023/01/15 07:55:08;;;;;;;11.53;2.23;;;;;;;;;;6244569;22;20161;-78
2023/01/15 07:57:33;;;;;;;12.70;1.90;;;;;;;;;;6237474;23;21240;-77
2023/01/15 07:59:59;;;;;;;11.20;2.40;;;;;;;;;;6241570;23;20390;-78
2023/01/15 08:02:24;;;;;;;5.60;2.13;;;;;;;;;;6239542;22;20163;-78
2023/01/15 08:04:49;;;;;;;13.53;2.20;;;;;;;;;;6241684;22;20911;-78
2023/01/15 08:07:15;;;;;;;10.03;2.60;;;;;;;;;;6242354;22;20145;-78
2023/01/15 08:09:40;;;;;;;9.27;2.07;;;;;;;;;;6241728;22;20648;-79
2023/01/15 08:17:34;;;;;;;11.20;3.00;;;;;;;;;;6240485;23;20385;-79
2023/01/15 08:19:59;;;;;;;7.40;1.93;;;;;;;;;;6240456;22;20358;-79
2023/01/15 08:22:25;;;;;;;11.67;2.03;;;;;;;;;;6240281;22;20416;-79
2023/01/15 08:24:50;;;;;;;8.70;2.07;;;;;;;;;;6237163;23;20155;-79
2023/01/15 08:27:15;;;;;;;10.67;2.63;;;;;;;;;;6237863;23;20653;-79
2023/01/15 08:29:41;;;;;;;14.27;3.10;;;;;;;;;;6237300;23;20603;-78
2023/01/15 08:32:06;;;;;;;6.07;1.63;;;;;;;;;;6238794;22;20572;-79
2023/01/15 08:34:31;;;;;;;8.83;1.83;;;;;;;;;;6237687;22;20213;-79
2023/01/15 08:36:58;;;;;;;9.47;2.23;;;;;;;;;;6240911;22;20609;-79
2023/01/15 08:39:27;;;;;;;5.90;1.93;;;;;;;;;;6247373;22;20185;-79
2023/01/15 08:41:53;;;;;;;10.63;2.20;;;;;;;;;;6238362;22;20719;-79
2023/01/15 08:44:22;;;;;;;9.73;2.67;;;;;;;;;;6244592;22;20429;-79
2023/01/15 08:46:47;;;;;;;10.30;1.70;;;;;;;;;;6248254;22;20374;-79
2023/01/15 08:49:16;;;;;;;5.87;1.40;;;;;;;;;;6245137;22;20457;-79
2023/01/15 08:51:42;;;;;;;9.30;2.33;;;;;;;;;;6245661;22;20178;-80
2023/01/15 08:54:08;;;;;;;8.60;1.97;;;;;;;;;;6242875;22;20424;-78
2023/01/15 08:56:33;;;;;;;9.00;2.70;;;;;;;;;;6246123;23;20390;-77
2023/01/15 08:59:02;;;;;;;7.30;2.00;;;;;;;;;;6237609;23;20618;-77
2023/01/15 09:01:27;;;;;;;6.70;2.03;;;;;;;;;;6240764;22;20586;-76
2023/01/15 09:03:53;;;;;;;9.17;1.80;;;;;;;;;;6251510;22;20396;-78
2023/01/15 09:06:21;;;;;;;6.57;1.67;;;;;;;;;;6243145;23;20505;-78
2023/01/15 09:08:46;;;;;;;7.83;2.00;;;;;;;;;;6238023;23;20166;-77
2023/01/15 09:11:14;;;;;;;8.50;1.63;;;;;;;;;;6238975;22;20362;-76
2023/01/15 09:13:39;;;;;;;7.63;1.60;;;;;;;;;;6237937;22;20179;-77
2023/01/15 09:16:05;;;;;;;13.57;1.77;;;;;;;;;;6232886;22;20374;-77
2023/01/15 09:18:30;;;;;;;15.03;2.00;;;;;;;;;;6235334;23;20380;-77
2023/01/15 09:20:56;;;;;;;7.20;2.10;;;;;;;;;;6239789;23;20143;-76
2023/01/15 09:23:24;;;;;;;12.57;2.00;;;;;;;;;;6240009;22;20578;-78
2023/01/15 09:25:53;;;;;;;8.70;1.83;;;;;;;;;;6238387;23;20464;-78
2023/01/15 09:28:21;;;;;;;8.70;1.63;;;;;;;;;;6238073;22;20401;-75
2023/01/15 09:30:52;;;;;;;8.27;1.97;;;;;;;;;;6234917;23;20392;-77
2023/01/15 09:33:35;;;;;;;6.43;2.07;;;;;;;;;;6238596;22;20425;-77
2023/01/15 09:36:00;;;;;;;10.10;2.07;;;;;;;;;;6239402;22;20352;-77
2023/01/15 09:38:25;;;;;;;6.97;1.93;;;;;;;;;;6240945;23;20385;-79
2023/01/15 09:40:55;;;;;;;5.60;1.47;;;;;;;;;;6241021;22;20183;-77
2023/01/15 09:43:33;;;;;;;7.13;1.67;;;;;;;;;;6240514;22;20183;-78
2023/01/15 09:46:07;;;;;;;8.43;1.80;;;;;;;;;;6241548;22;20359;-77
2023/01/15 09:48:39;;;;;;;10.63;2.00;;;;;;;;;;6238181;23;20432;-77
2023/01/15 09:51:04;;;;;;;9.20;1.67;;;;;;;;;;6238926;23;20439;-76
2023/01/15 09:53:45;;;;;;;11.50;1.97;;;;;;;;;;6237298;22;20928;-76
2023/01/15 09:56:18;;;;;;;10.10;2.17;;;;;;;;;;6238076;23;20143;-78
2023/01/15 09:58:44;;;;;;;8.20;1.80;;;;;;;;;;6235809;23;20377;-77
2023/01/15 10:01:16;;;;;;;10.03;2.00;;;;;;;;;;6240742;23;20366;-77
2023/01/15 10:03:44;;;;;;;11.57;2.43;;;;;;;;;;6238453;22;20355;-78
2023/01/15 10:06:18;;;;;;;8.90;2.10;;;;;;;;;;6235585;22;20484;-76
2023/01/15 10:08:46;;;;;;;12.07;3.70;;;;;;;;;;6231077;22;20354;-77
2023/01/15 10:11:15;;;;;;;11.90;2.50;;;;;;;;;;6238540;22;20452;-78
2023/01/15 10:13:40;;;;;;;8.20;1.70;;;;;;;;;;6235455;22;20421;-80
2023/01/15 10:16:08;;;;;;;5.40;2.10;;;;;;;;;;6235427;23;20456;-79
2023/01/15 10:18:34;;;;;;;7.60;1.70;;;;;;;;;;6238235;22;20147;-79
2023/01/15 10:21:07;;;;;;;6.00;1.70;;;;;;;;;;6236658;22;20848;-78
2023/01/15 10:23:39;;;;;;;10.73;1.80;;;;;;;;;;6233763;22;20859;-79
2023/01/15 10:26:24;;;;;;;14.10;2.73;;;;;;;;;;6235411;23;20421;-78
2023/01/15 10:29:02;;;;;;;13.70;2.27;;;;;;;;;;6241388;22;20433;-75
2023/01/15 10:31:32;;;;;;;8.10;1.77;;;;;;;;;;6241841;22;20393;-76
2023/01/15 10:33:58;;;;;;;15.00;2.30;;;;;;;;;;6244014;22;20476;-81
2023/01/15 10:36:44;;;;;;;10.30;2.00;;;;;;;;;;6255758;22;20457;-81
2023/01/15 10:39:45;;;;;;;11.17;2.23;;;;;;;;;;6282297;22;20424;-81
2023/01/15 10:42:13;;;;;;;7.80;2.30;;;;;;;;;;6158345;23;20376;-80
2023/01/15 10:44:57;;;;;;;9.20;2.00;;;;;;;;;;6239800;22;20390;-80
2023/01/15 10:47:28;;;;;;;7.83;1.70;;;;;;;;;;6249478;23;20840;-79
2023/01/15 10:49:58;;;;;;;11.47;1.80;;;;;;;;;;6247727;22;20404;-78
2023/01/15 10:52:23;;;;;;;5.47;1.57;;;;;;;;;;6249168;22;20433;-75
2023/01/15 10:54:51;;;;;;;10.90;2.00;;;;;;;;;;6252059;23;20374;-79
2023/01/15 10:57:27;;;;;;;7.77;1.60;;;;;;;;;;6264547;23;20143;-83
2023/01/15 10:59:56;;;;;;;8.40;2.13;;;;;;;;;;6264019;22;20391;-81
2023/01/15 11:02:28;;;;;;;10.00;1.80;;;;;;;;;;6259002;22;20406;-80
2023/01/15 11:04:53;;;;;;;9.47;2.13;;;;;;;;;;6264500;23;20370;-81
2023/01/15 11:07:24;;;;;;;7.90;1.90;;;;;;;;;;6266733;23;20408;-82
2023/01/15 11:09:49;;;;;;;8.23;1.80;;;;;;;;;;6265605;23;20131;-81
2023/01/15 11:20:41;;;;;;;14.13;2.20;;;;;;;;;;6267943;23;20369;-83
2023/01/15 11:23:18;;;;;;;9.73;2.33;;;;;;;;;;6271633;22;20366;-83
2023/01/15 11:25:49;;;;;;;12.07;2.10;;;;;;;;;;6271326;22;20346;-84
2023/01/15 11:28:15;;;;;;;12.03;1.73;;;;;;;;;;6265003;23;20402;-80
2023/01/15 11:30:40;;;;;;;12.40;2.50;;;;;;;;;;6258407;22;20362;-81
2023/01/15 11:33:26;;;;;;;9.23;2.10;;;;;;;;;;6259487;22;20189;-79
2023/01/15 11:35:57;;;;;;;14.27;2.20;;;;;;;;;;6257464;23;20382;-79
2023/01/15 11:38:22;;;;;;;14.83;2.40;;;;;;;;;;6248980;23;20374;-80
2023/01/15 11:41:05;;;;;;;13.50;3.50;;;;;;;;;;6265424;22;20386;-84
2023/01/15 11:52:07;;;;;;;15.60;2.80;;;;;;;;;;6248772;22;20851;-79
2023/01/15 11:54:36;;;;;;;11.27;3.47;;;;;;;;;;6244162;22;20418;-79
2023/01/15 11:57:01;;;;;;;9.20;2.40;;;;;;;;;;6251538;22;20370;-80
2023/01/15 11:59:26;;;;;;;10.00;2.30;;;;;;;;;;6250936;23;20362;-80
2023/01/15 12:01:56;;;;;;;10.70;2.23;;;;;;;;;;6250835;22;20163;-81
2023/01/15 12:04:25;;;;;;;8.43;2.33;;;;;;;;;;6254114;22;20158;-78
2023/01/15 12:06:50;;;;;;;7.40;2.33;;;;;;;;;;6256864;22;20370;-80
2023/01/15 12:09:38;;;;;;;12.43;2.33;;;;;;;;;;6256456;23;20368;-81
2023/01/15 12:12:14;;;;;;;10.50;2.20;;;;;;;;;;6213306;22;20155;-80
2023/01/15 12:14:49;;;;;;;10.00;2.93;;;;;;;;;;6257919;23;20749;-81
2023/01/15 12:17:33;;;;;;;11.67;2.50;;;;;;;;;;6259227;22;20376;-82
2023/01/15 12:20:04;;;;;;;12.83;2.40;;;;;;;;;;6259985;23;20444;-82
2023/01/15 12:22:39;;;;;;;11.40;2.47;;;;;;;;;;6270004;22;20406;-83
2023/01/15 12:25:15;;;;;;;9.73;2.30;;;;;;;;;;6269301;22;20373;-81
2023/01/15 12:27:48;;;;;;;12.67;2.47;;;;;;;;;;6268111;22;20400;-83
2023/01/15 12:30:18;;;;;;;9.40;2.00;;;;;;;;;;6263999;22;20369;-80
2023/01/15 12:32:48;;;;;;;16.77;2.73;;;;;;;;;;6260782;22;20418;-80
2023/01/15 12:35:30;;;;;;;8.07;2.40;;;;;;;;;;6257025;22;20456;-80
2023/01/15 12:37:59;;;;;;;13.73;2.40;;;;;;;;;;6254874;22;20362;-78
2023/01/15 12:40:27;;;;;;;11.20;2.90;;;;;;;;;;6249227;23;20378;-79
2023/01/15 12:45:42;;;;;;;15.17;2.33;;;;;;;;;;6246977;23;20350;-78
2023/01/15 12:48:10;;;;;;;18.50;2.93;;;;;;;;;;6245332;22;20374;-78
2023/01/15 12:50:46;;;;;;;10.33;2.13;;;;;;;;;;6246004;23;20377;-76
2023/01/15 12:53:23;;;;;;;4.30;1.27;;;;;;;;;;6246006;22;20417;-76
2023/01/15 12:56:00;;;;;;;8.93;1.87;;;;;;;;;;6240819;22;20389;-77
2023/01/15 12:58:28;;;;;;;7.97;2.10;;;;;;;;;;6237915;23;20461;-76
2023/01/15 13:01:13;;;;;;;3.53;0.97;;;;;;;;;;6238688;23;20903;-77
2023/01/15 13:04:02;;;;;;;2.30;0.90;;;;;;;;;;6230081;22;20484;-79
2023/01/15 13:06:28;;;;;;;3.57;0.80;;;;;;;;;;6247622;23;20378;-79
2023/01/15 13:09:05;;;;;;;1.93;0.80;;;;;;;;;;6249538;22;20855;-78
2023/01/15 13:11:31;;;;;;;2.80;0.80;;;;;;;;;;6251222;23;20154;-79
2023/01/15 13:13:58;;;;;;;4.80;1.00;;;;;;;;;;6248802;22;20895;-79
2023/01/15 13:16:53;;;;;;;3.73;1.00;;;;;;;;;;6242070;23;20685;-79
2023/01/15 13:19:18;;;;;;;4.17;1.20;;;;;;;;;;6225661;23;20456;-78
2023/01/15 13:21:47;;;;;;;1.10;0.80;;;;;;;;;;6245985;23;20959;-78
2023/01/15 13:24:23;;;;;;;3.20;1.37;;;;;;;;;;6240779;22;20166;-78
2023/01/15 13:26:51;;;;;;;2.87;1.00;;;;;;;;;;6243982;22;20358;-77
2023/01/15 13:29:19;;;;;;;2.93;1.17;;;;;;;;;;6240756;23;20366;-76
2023/01/15 13:32:02;;;;;;;4.90;1.43;;;;;;;;;;6242694;22;20452;-76
2023/01/15 13:34:40;;;;;;;3.20;1.37;;;;;;;;;;6238481;23;20524;-76
2023/01/15 13:37:26;;;;;;;4.10;1.00;;;;;;;;;;6240113;22;20382;-77
2023/01/15 13:39:55;;;;;;;5.70;1.30;;;;;;;;;;6241887;22;20717;-78
2023/01/15 13:42:31;;;;;;;5.57;1.53;;;;;;;;;;6240417;22;20844;-77
2023/01/15 13:45:00;;;;;;;5.67;1.40;;;;;;;;;;6242295;22;20354;-77
2023/01/15 13:47:30;;;;;;;6.10;1.90;;;;;;;;;;6238049;23;20747;-78
2023/01/15 13:50:00;;;;;;;4.50;1.23;;;;;;;;;;6240803;23;20384;-75
2023/01/15 13:52:37;;;;;;;3.30;1.60;;;;;;;;;;6238136;22;20389;-78
2023/01/15 13:55:09;;;;;;;6.60;1.60;;;;;;;;;;6251009;22;20894;-82
2023/01/15 13:57:35;;;;;;;5.10;1.80;;;;;;;;;;6246422;23;20424;-80
2023/01/15 14:00:04;;;;;;;5.10;1.43;;;;;;;;;;6246356;22;20382;-79
2023/01/15 14:02:30;;;;;;;3.43;0.87;;;;;;;;;;6242647;22;20828;-78
2023/01/15 14:04:58;;;;;;;3.83;1.30;;;;;;;;;;6244646;22;20358;-79
2023/01/15 14:07:34;;;;;;;2.60;1.27;;;;;;;;;;6243564;22;20363;-80
2023/01/15 14:10:20;;;;;;;6.77;1.20;;;;;;;;;;6245868;22;20389;-80
2023/01/15 14:13:14;;;;;;;3.90;0.97;;;;;;;;;;6248623;22;20422;-82
2023/01/15 14:16:02;;;;;;;3.50;1.20;;;;;;;;;;6235839;23;20401;-79
2023/01/15 14:18:46;;;;;;;3.50;1.00;;;;;;;;;;6246457;22;20354;-78
2023/01/15 14:21:30;;;;;;;4.13;1.17;;;;;;;;;;6251482;23;20378;-80
2023/01/15 14:23:59;;;;;;;5.87;1.60;;;;;;;;;;6244247;22;20486;-77
2023/01/15 14:26:31;;;;;;;5.20;1.43;;;;;;;;;;6251328;23;20367;-78
2023/01/15 14:29:03;;;;;;;2.80;0.93;;;;;;;;;;6244058;22;20347;-79
2023/01/15 14:31:37;;;;;;;6.60;2.00;;;;;;;;;;6258053;22;20397;-82
2023/01/15 14:34:15;;;;;;;4.43;1.43;;;;;;;;;;6253346;22;20973;-81
2023/01/15 14:37:00;;;;;;;2.17;0.90;;;;;;;;;;6253698;22;20915;-78
2023/01/15 14:39:47;;;;;;;2.57;1.07;;;;;;;;;;6252684;23;20397;-80
2023/01/15 14:45:07;;;;;;;5.83;1.33;;;;;;;;;;6254874;23;20374;-80
2023/01/15 14:47:33;;;;;;;2.60;1.07;;;;;;;;;;6252264;22;20411;-80
2023/01/15 14:50:20;;;;;;;3.03;1.07;;;;;;;;;;6255659;22;20390;-80
2023/01/15 14:52:45;;;;;;;3.40;1.20;;;;;;;;;;6255663;22;20440;-80
2023/01/15 14:55:11;;;;;;;3.43;1.20;;;;;;;;;;6259747;22;20362;-82
2023/01/15 14:57:40;;;;;;;3.40;1.40;;;;;;;;;;6254414;22;20147;-80
2023/01/15 15:00:09;;;;;;;5.67;1.80;;;;;;;;;;6255288;22;20369;-80
2023/01/15 15:02:37;;;;;;;9.47;2.17;;;;;;;;;;6249015;22;20697;-80
2023/01/15 15:05:07;;;;;;;8.53;3.10;;;;;;;;;;6255739;23;20362;-80
2023/01/15 15:07:39;;;;;;;13.00;2.40;;;;;;;;;;6257319;22;20365;-81
2023/01/15 15:10:10;;;;;;;5.77;1.87;;;;;;;;;;6263318;22;20330;-80
2023/01/15 15:12:41;;;;;;;5.80;1.53;;;;;;;;;;6260439;22;20381;-79
2023/01/15 15:15:23;;;;;;;9.40;2.50;;;;;;;;;;6251161;23;20358;-78
2023/01/15 15:18:01;;;;;;;7.73;1.83;;;;;;;;;;6254224;22;20790;-82
2023/01/15 15:20:46;;;;;;;8.37;2.20;;;;;;;;;;6254851;23;20370;-81
2023/01/15 15:23:19;;;;;;;8.50;2.57;;;;;;;;;;6247946;22;20915;-79
2023/01/15 15:25:50;;;;;;;7.97;2.40;;;;;;;;;;6259664;22;20354;-80
2023/01/15 15:28:15;;;;;;;13.83;2.50;;;;;;;;;;6246533;23;20366;-80
2023/01/15 15:30:42;;;;;;;11.27;2.37;;;;;;;;;;6257082;22;20365;-80
2023/01/15 15:33:11;;;;;;;10.37;2.60;;;;;;;;;;6254850;22;20254;-80
2023/01/15 15:35:39;;;;;;;10.47;2.73;;;;;;;;;;6251746;22;20826;-80
2023/01/15 15:38:04;;;;;;;7.77;2.60;;;;;;;;;;6252775;22;20369;-81
2023/01/15 15:40:32;;;;;;;8.37;2.30;;;;;;;;;;6250753;22;20775;-80
2023/01/15 15:48:41;;;;;;;9.70;2.73;;;;;;;;;;6254195;23;20349;-80